• Join FlightAware (Why Join?)
  • Login
  • US Flag 
04:09AM EST


 

Airport Tracker/Info


-or-


 

Live Flight TrackerFlight Track Log ✈ GJS3649 ✈ 10-Apr-2013 ✈ KORD - KPWM

Flight Track Log - Related Links

Times and Time Zones

All times are in EDT time to prevent confusion due to time zone crossing. See the GJS3649 flight status page for this flight to view local times or setup timezone preferences in your user account.

Time Position Orientation Groundspeed Altitude Reporting Facility
EDT Latitude Longitude Course Direction KTS MPH feet Rate Location/Type
09:55AM 41.9833 -87.8500 143° Southeast 167 192 2,800  Level Chicago TRACON
09:55AM 41.9500 -87.8167 143° Southeast 225 259 4,400 2,220 Climbing Chicago TRACON
09:57AM 41.8833 -87.8667 209° Southwest 247 284 6,800 2,640 Climbing Chicago TRACON
09:58AM 41.8508 -87.9192 230° Southwest 242 278 10,100 3,000 Climbing Chicago Center
09:59AM 41.8117 -87.9911 234° Southwest 243 280 12,900 2,040 Climbing Chicago Center
10:00AM 41.7367 -87.9883 178° South 290 334 14,300 1,020 Climbing Chicago Center
10:01AM 41.6411 -87.9581 167° South 294 338 15,100 360 Climbing Chicago Center
10:02AM 41.5675 -87.9128 155° Southeast 305 351 15,100 1,020 Level Chicago Center
10:03AM 41.4947 -87.8392 143° Southeast 323 372 17,200 2,160 Climbing Chicago Center
10:04AM 41.4214 -87.7653 143° Southeast 325 374 19,600 2,040 Climbing Chicago Center
10:05AM 41.3444 -87.6886 143° Southeast 337 388 21,500 1,740 Climbing Chicago Center
10:06AM 41.3025 -87.5603 113° Southeast 387 445 23,200 1,680 Climbing Chicago Center
10:07AM 41.2922 -87.4097 95° East 406 467 25,000 1,320 Climbing Chicago Center
10:08AM 41.2814 -87.2503 95° East 426 490 26,000 960 Climbing Chicago Center
10:09AM 41.2706 -87.0803 95° East 455 524 27,000 480 Climbing Chicago Center
10:10AM 41.2553 -86.8714 95° East 472 543 27,000 660 Level Chicago Center
10:11AM 41.2422 -86.6967 96° East 477 549 28,400 1,200 Climbing Chicago Center
10:12AM 41.2283 -86.5156 96° East 489 563 29,500 1,140 Climbing Chicago Center
10:13AM 41.2142 -86.3375 96° East 489 563 30,800 1,260 Climbing Chicago Center
10:14AM 41.2014 -86.1578 95° East 491 565 32,200 1,560 Climbing Chicago Center
10:15AM 41.1878 -85.9831 96° East 485 558 34,000 1,320 Climbing Chicago Center
10:16AM 41.1733 -85.8142 96° East 472 543 35,000 480 Climbing Chicago Center
10:17AM 41.1561 -85.6022 96° East 479 551 35,000  Level Chicago Center
10:18AM 41.1422 -85.4214 96° East 491 565 35,000  Level Chicago Center
10:19AM 41.1264 -85.2508 97° East 481 554 35,000  Level Chicago Center
10:20AM 41.0803 -85.0914 111° Southeast 479 551 35,000  Level Chicago Center
10:21AM 41.0317 -84.9325 112° Southeast 471 542 35,000  Level Chicago Center
10:23AM 40.9458 -84.6764 114° Southeast 480 552 35,000  Level Chicago Center
10:24AM 40.8803 -84.5250 120° Southeast 479 551 35,000  Level Chicago Center
10:25AM 40.8083 -84.3272 116° Southeast 484 557 35,000  Level Indianapolis Center
10:26AM 40.7486 -84.1639 116° Southeast 489 563 35,000  Level Indianapolis Center
10:27AM 40.6889 -83.9994 116° Southeast 492 566 35,000 -60 Level Indianapolis Center
10:28AM 40.6272 -83.8386 117° Southeast 488 562 34,900  Descending Indianapolis Center
10:29AM 40.5681 -83.6797 116° Southeast 479 551 35,000  Climbing Indianapolis Center
10:30AM 40.5108 -83.5225 116° Southeast 472 543 35,000  Level Indianapolis Center
10:31AM 40.4511 -83.3678 117° Southeast 469 540 35,000  Level Indianapolis Center
10:32AM 40.3914 -83.2108 117° Southeast 473 544 35,000  Level Indianapolis Center
10:33AM 40.3303 -83.0525 117° Southeast 478 550 35,000  Level Indianapolis Center
10:34AM 40.2700 -82.8950 117° Southeast 477 549 35,000  Level Indianapolis Center
10:35AM 40.2208 -82.7300 111° Southeast 483 556 35,000  Level Indianapolis Center
10:36AM 40.2347 -82.5289 85° East 478 550 35,000  Level Indianapolis Center
10:37AM 40.2758 -82.3672 72° East 473 544 35,000  Level Indianapolis Center
10:38AM 40.3161 -82.1997 72° East 477 549 35,000  Level Indianapolis Center
10:39AM 40.3567 -82.0325 72° East 480 552 35,000  Level Indianapolis Center
10:40AM 40.3978 -81.8536 73° East 482 555 35,000  Level Cleveland Center
10:41AM 40.4392 -81.6853 72° East 476 548 35,000  Level Cleveland Center
10:42AM 40.4781 -81.5247 72° East 476 548 35,000  Level Cleveland Center
10:43AM 40.5147 -81.3750 72° East 476 548 35,000  Level Cleveland Center
10:45AM 40.5961 -81.0150 73° East 460 529 35,000  Level Indianapolis Center
10:46AM 40.6331 -80.8531 73° East 459 528 35,000  Level Indianapolis Center
10:47AM 40.6633 -80.7336 71° East 456 525 35,000  Level Cleveland Center
10:48AM 40.7008 -80.5556 74° East 451 519 35,000  Level Cleveland Center
10:49AM 40.7361 -80.3967 74° East 456 525 35,000  Level Cleveland Center
10:50AM 40.7714 -80.2431 73° East 449 517 35,000  Level Cleveland Center
10:51AM 40.8061 -80.0783 74° East 443 510 35,000  Level Cleveland Center
10:52AM 40.8408 -79.9328 72° East 448 516 35,000  Level Cleveland Center
10:53AM 40.8753 -79.7703 74° East 454 522 35,000  Level Cleveland Center
10:54AM 40.9114 -79.6050 74° East 454 522 35,000  Level Cleveland Center
10:55AM 40.9514 -79.4231 74° East 459 528 35,000  Level Cleveland Center
10:56AM 40.9872 -79.2572 74° East 459 528 35,000  Level Cleveland Center
10:57AM 41.0225 -79.0858 75° East 459 528 35,000  Level Cleveland Center
10:58AM 41.0578 -78.9172 74° East 465 535 35,000  Level Cleveland Center
10:59AM 41.0947 -78.7481 74° East 471 542 35,000  Level Cleveland Center
11:00AM 41.1294 -78.5733 75° East 476 548 35,000  Level Cleveland Center
11:02AM 41.1789 -78.3278 75° East 489 563 35,000  Level New York Center
11:03AM 41.2147 -78.1550 75° East 489 563 35,000  Level New York Center
11:04AM 41.2664 -77.9894 67° East 483 556 35,000  Level New York Center
11:05AM 41.3158 -77.8289 68° East 478 550 35,000  Level New York Center
11:06AM 41.3694 -77.6603 67° East 478 550 35,000  Level New York Center
11:07AM 41.4203 -77.4994 67° East 478 550 35,000  Level New York Center
11:08AM 41.4711 -77.3356 67° East 478 550 35,000  Level New York Center
11:09AM 41.5217 -77.1744 67° East 478 550 35,000  Level New York Center
11:10AM 41.5719 -77.0100 68° East 478 550 35,000  Level New York Center
11:11AM 41.6225 -76.8397 68° East 478 550 35,000  Level New York Center
11:12AM 41.6794 -76.6617 67° East 472 543 35,000  Level New York Center
11:13AM 41.7311 -76.4967 67° East 472 543 35,000  Level New York Center
11:14AM 41.7806 -76.3311 68° East 472 543 35,000  Level New York Center
11:15AM 41.8278 -76.1653 69° East 478 550 35,000  Level New York Center
11:16AM 41.8792 -75.9967 68° East 478 550 35,000  Level New York Center
11:18AM 41.9794 -75.6575 68° East 497 572 35,000  Level Boston Center
11:19AM 42.0300 -75.4869 68° East 497 572 35,000  Level Boston Center
11:20AM 42.0783 -75.3183 69° East 487 560 35,000  Level Boston Center
11:21AM 42.1386 -75.1533 64° Northeast 482 555 35,000  Level Boston Center
11:22AM 42.1944 -74.9958 64° Northeast 475 547 35,000  Level Boston Center
11:23AM 42.2500 -74.8328 65° Northeast 475 547 35,000  Level Boston Center
11:24AM 42.3078 -74.6664 65° Northeast 475 547 35,000  Level Boston Center
11:25AM 42.3672 -74.5000 64° Northeast 480 552 35,000  Level Boston Center
11:26AM 42.4283 -74.3358 63° Northeast 480 552 35,000  Level Boston Center
11:27AM 42.4853 -74.1658 66° East 480 552 35,000  Level Boston Center
11:28AM 42.5419 -73.9983 65° Northeast 480 552 35,000  Level Boston Center
11:29AM 42.6003 -73.8306 65° Northeast 480 552 35,000  Level Boston Center
11:30AM 42.6564 -73.6625 66° East 480 552 35,000  Level Boston Center
11:31AM 42.7144 -73.4942 65° Northeast 485 558 35,000  Level Boston Center
11:32AM 42.7722 -73.3253 65° Northeast 485 558 35,000  Level Boston Center
11:33AM 42.8297 -73.1506 66° East 485 558 35,000  Level Boston Center
11:34AM 42.8889 -72.9614 67° East 490 564 35,000  Level Boston Center
11:35AM 42.9439 -72.7889 66° East 490 564 35,000 -60 Level Boston Center
11:36AM 42.9900 -72.6472 66° East 495 570 34,900 -1,380 Descending Boston Center
11:37AM 43.0569 -72.4628 64° Northeast 495 570 32,300 -2,640 Descending Boston Center
11:38AM 43.1089 -72.2950 67° East 488 562 29,600 -2,880 Descending Boston Center
11:39AM 43.1564 -72.1297 68° East 470 541 26,600 -2,820 Descending Boston Center
11:40AM 43.2100 -71.9672 66° East 462 532 24,100 -2,340 Descending Boston Center
11:41AM 43.2572 -71.8100 68° East 450 518 21,900 -2,760 Descending Boston Center
11:42AM 43.3103 -71.6383 67° East 445 512 18,600 -3,060 Descending Boston Center
11:43AM 43.3531 -71.5064 66° East 432 497 15,800 -2,880 Descending Boston Center
11:44AM 43.4039 -71.3428 67° East 420 483 13,000 -2,340 Descending Boston Center
11:45AM 43.4442 -71.2075 68° East 395 455 11,300 -1,020 Descending Boston Center
11:46AM 43.4822 -71.0808 67° East 388 447 11,000 -240 Descending Boston Center
11:47AM 43.5219 -70.9311 70° East 388 447 10,900 -720 Descending Boston Center
11:48AM 43.5350 -70.8192 81° East 344 396 9,600 -1,620 Descending Boston Center
11:49AM 43.5311 -70.6817 92° East 322 371 7,700 -1,680 Descending Boston Center
11:50AM 43.5272 -70.5789 93° East 309 356 6,200 -1,560 Descending Boston Center
11:51AM 43.5233 -70.4586 93° East 290 334 4,600 -1,140 Descending Boston Center
11:52AM 43.5278 -70.3639 86° East 276 318 4,000 -960 Descending Boston Center
11:53AM 43.5364 -70.2606 83° East 250 288 2,800 -1,020 Descending Boston Center
11:54AM 43.5431 -70.1831 83° East 233 268 2,000 -600 Descending Boston Center
11:55AM 43.5708 -70.1103 62° Northeast 202 232 1,700 -120 Descending Boston Center
11:56AM 43.6147 -70.1114 359° North 161 185 1,800  Climbing Boston Center
11:57AM 43.6367 -70.1767 295° West 145 167 1,800 -360 Level Boston Center
11:58AM 43.6397 -70.2253 275° West 145 167 1,100 -720 Descending Boston Center
11:59AM 43.6431 -70.2797 275° West 139 160 400 -480 Descending Boston Center
12:00PM 43.6458 -70.3311 274° West 139 160 200 11,700 Descending Boston Center
12:01PM 43.6469 -70.3828 272° West 139 160 24,000 23,400 Climbing Boston Center
12:03PM 43.6456 -70.3086 126° Southeast  Level Estimated